createdAt,value
2022-08-31T00:00:10.268Z,50.38
2022-08-31T00:02:57.111Z,50.59
2022-08-31T00:05:23.619Z,51.68
2022-08-31T00:07:51.666Z,51.04
2022-08-31T00:10:31.972Z,50.93
2022-08-31T00:13:03.814Z,50.97
2022-08-31T00:15:30.667Z,50.88
2022-08-31T00:17:58.231Z,50.74
2022-08-31T00:20:33.989Z,50.65
2022-08-31T00:23:03.316Z,51.33
2022-08-31T00:25:30.103Z,50.81
2022-08-31T00:27:56.673Z,50.86
2022-08-31T00:30:23.436Z,50.84
2022-08-31T00:32:50.278Z,51.08
2022-08-31T00:35:16.924Z,51.11
2022-08-31T00:37:43.672Z,50.93
2022-08-31T00:40:11.381Z,51.21
2022-08-31T00:42:38.181Z,51.37
2022-08-31T00:45:06.835Z,51.23
2022-08-31T00:47:33.400Z,51.32
2022-08-31T00:50:00.923Z,51.22
2022-08-31T00:52:37.510Z,51.12
2022-08-31T00:55:21.036Z,51.11
2022-08-31T00:57:54.483Z,50.77
2022-08-31T01:00:26.326Z,50.91
2022-08-31T01:02:54.852Z,51.39
2022-08-31T01:05:21.558Z,51.51
2022-08-31T01:07:50.502Z,51.54
2022-08-31T01:10:21.934Z,51.40
2022-08-31T01:12:54.482Z,51.57
2022-08-31T01:15:21.980Z,51.72
2022-08-31T01:17:52.399Z,51.86
2022-08-31T01:20:56.588Z,52.34
2022-08-31T01:23:27.675Z,52.25
2022-08-31T01:25:58.264Z,52.48
2022-08-31T01:28:25.901Z,52.41
2022-08-31T01:31:35.210Z,53.10
2022-08-31T01:34:03.840Z,52.80
2022-08-31T01:36:32.558Z,52.84
2022-08-31T01:38:59.082Z,52.77
2022-08-31T01:41:25.593Z,52.72
2022-08-31T01:43:53.022Z,52.59
2022-08-31T01:46:19.827Z,52.60
2022-08-31T01:48:48.105Z,52.64
2022-08-31T01:51:19.370Z,52.74
2022-08-31T01:53:48.794Z,52.80
2022-08-31T01:56:24.795Z,52.87
2022-08-31T01:58:51.756Z,52.54
2022-08-31T02:01:32.583Z,52.31
2022-08-31T02:04:00.431Z,52.12
2022-08-31T02:06:27.017Z,52.21
2022-08-31T02:08:53.700Z,52.32
2022-08-31T02:11:20.281Z,52.44
2022-08-31T02:13:46.775Z,52.46
2022-08-31T02:16:13.643Z,52.43
2022-08-31T02:18:40.294Z,52.33
2022-08-31T02:21:07.446Z,52.34
2022-08-31T02:23:34.578Z,52.56
2022-08-31T02:26:01.413Z,53.01
2022-08-31T02:28:27.923Z,54.81
2022-08-31T02:30:54.476Z,56.63
2022-08-31T02:33:21.054Z,58.61
2022-08-31T02:35:50.298Z,59.45
2022-08-31T02:38:22.871Z,60.77
2022-08-31T02:40:51.549Z,61.88
2022-08-31T02:43:24.426Z,62.73
2022-08-31T02:45:55.724Z,63.61
2022-08-31T02:48:22.474Z,64.07
2022-08-31T02:50:52.238Z,64.31
2022-08-31T02:53:22.910Z,64.57
2022-08-31T02:55:50.115Z,65.19
2022-08-31T02:58:20.716Z,65.33
2022-08-31T03:00:50.127Z,65.31
2022-08-31T03:03:17.724Z,65.80
2022-08-31T03:05:44.627Z,65.98
2022-08-31T03:08:11.148Z,65.83
2022-08-31T03:10:37.679Z,65.51
2022-08-31T03:13:04.386Z,66.03
2022-08-31T03:15:31.541Z,66.81
2022-08-31T03:17:58.152Z,67.25
2022-08-31T03:20:27.201Z,67.09
2022-08-31T03:22:54.806Z,67.13
2022-08-31T03:25:22.233Z,67.17
2022-08-31T03:27:49.054Z,66.58
2022-08-31T03:30:19.609Z,66.22
2022-08-31T03:32:48.347Z,66.24
2022-08-31T03:35:15.814Z,66.92
2022-08-31T03:37:42.375Z,67.73
2022-08-31T03:40:10.182Z,67.90
2022-08-31T03:42:37.032Z,67.96
2022-08-31T03:45:04.866Z,68.21
2022-08-31T03:47:31.390Z,68.51
2022-08-31T03:49:58.623Z,68.35
2022-08-31T03:52:25.534Z,68.52
2022-08-31T03:54:52.052Z,68.42
2022-08-31T03:57:18.568Z,68.43
2022-08-31T03:59:45.080Z,68.79
2022-08-31T04:02:11.601Z,68.64
2022-08-31T04:04:38.168Z,68.97
2022-08-31T04:07:04.767Z,68.88
2022-08-31T04:09:31.317Z,68.76
2022-08-31T04:11:57.821Z,68.54
2022-08-31T04:14:24.306Z,68.36
2022-08-31T04:16:50.899Z,68.25
2022-08-31T04:19:17.480Z,68.36
2022-08-31T04:21:44.550Z,68.85
2022-08-31T04:24:11.958Z,69.24
2022-08-31T04:26:40.853Z,69.85
2022-08-31T04:29:12.854Z,70.11
2022-08-31T04:31:40.489Z,70.20
2022-08-31T04:34:08.151Z,70.11
2022-08-31T04:36:35.513Z,69.51
2022-08-31T04:39:04.311Z,69.46
2022-08-31T04:41:35.058Z,69.93
2022-08-31T04:44:03.771Z,70.33
2022-08-31T04:46:32.752Z,70.42
2022-08-31T04:48:59.583Z,70.32
2022-08-31T04:51:31.842Z,70.00
2022-08-31T04:53:58.829Z,70.04
2022-08-31T04:56:29.483Z,69.89
2022-08-31T04:59:06.229Z,70.15
2022-08-31T05:01:43.433Z,70.67
2022-08-31T05:04:14.076Z,70.68
2022-08-31T05:06:44.588Z,71.01
2022-08-31T05:09:20.031Z,70.70
2022-08-31T05:11:47.224Z,70.81
2022-08-31T05:14:14.311Z,71.03
2022-08-31T05:16:42.676Z,71.06
2022-08-31T05:19:09.623Z,70.87
2022-08-31T05:21:40.617Z,71.00
2022-08-31T05:24:22.433Z,71.03
2022-08-31T05:26:53.653Z,71.25
2022-08-31T05:29:25.093Z,71.50
2022-08-31T05:31:52.788Z,71.57
2022-08-31T05:34:21.725Z,71.59
2022-08-31T05:36:55.498Z,71.40
2022-08-31T05:39:22.070Z,71.36
2022-08-31T05:41:49.005Z,71.24
2022-08-31T05:44:17.403Z,71.45
2022-08-31T05:46:44.180Z,71.70
2022-08-31T05:49:11.663Z,71.35
2022-08-31T05:51:39.681Z,71.64
2022-08-31T05:54:07.886Z,71.62
2022-08-31T05:56:35.599Z,71.85
2022-08-31T05:59:02.411Z,71.59
2022-08-31T06:01:38.721Z,71.03
2022-08-31T06:04:07.714Z,71.14
2022-08-31T06:06:34.793Z,71.45
2022-08-31T06:09:01.397Z,71.64
2022-08-31T06:11:30.968Z,71.11
2022-08-31T06:14:01.923Z,71.22
2022-08-31T06:16:30.359Z,71.15
2022-08-31T06:18:58.278Z,71.36
2022-08-31T06:21:33.693Z,71.25
2022-08-31T06:24:03.320Z,71.27
2022-08-31T06:26:33.972Z,71.08
2022-08-31T06:29:05.513Z,70.79
2022-08-31T06:31:38.582Z,70.49
2022-08-31T06:34:07.086Z,70.57
2022-08-31T06:36:35.112Z,70.43
2022-08-31T06:39:02.335Z,70.57
2022-08-31T06:41:36.768Z,70.36
2022-08-31T06:44:08.598Z,70.56
2022-08-31T06:46:37.543Z,71.02
2022-08-31T06:49:05.979Z,70.78
2022-08-31T06:51:37.814Z,70.74
2022-08-31T06:54:28.668Z,70.60
2022-08-31T06:56:59.646Z,70.37
2022-08-31T06:59:29.214Z,70.25
2022-08-31T07:02:00.208Z,70.09
2022-08-31T07:04:27.806Z,69.78
2022-08-31T07:06:54.472Z,69.62
2022-08-31T07:09:20.989Z,69.43
2022-08-31T07:11:52.013Z,69.32
2022-08-31T07:14:23.577Z,69.91
2022-08-31T07:16:56.499Z,70.18
2022-08-31T07:19:24.110Z,70.11
2022-08-31T07:22:00.309Z,70.42
2022-08-31T07:24:31.367Z,70.74
2022-08-31T07:27:02.899Z,70.95
2022-08-31T07:29:37.529Z,70.95
2022-08-31T07:32:04.124Z,71.27
2022-08-31T07:34:33.459Z,71.57
2022-08-31T07:37:19.649Z,71.33
2022-08-31T07:40:07.789Z,71.45
2022-08-31T07:42:43.617Z,70.96
2022-08-31T07:47:55.114Z,69.98
2022-08-31T07:50:23.453Z,69.21
2022-08-31T07:52:54.756Z,68.25
2022-08-31T07:55:24.630Z,68.05
2022-08-31T07:57:54.764Z,67.42
2022-08-31T08:00:26.450Z,66.14
2022-08-31T08:02:54.459Z,66.13
2022-08-31T08:05:27.480Z,64.30
2022-08-31T08:08:03.650Z,64.14
2022-08-31T08:10:31.649Z,63.81
2022-08-31T08:13:04.836Z,63.94
2022-08-31T08:15:35.444Z,64.20
2022-08-31T08:18:04.518Z,63.24
2022-08-31T08:20:37.410Z,63.29
2022-08-31T08:23:14.540Z,63.63
2022-08-31T08:25:43.671Z,63.46
2022-08-31T08:28:38.169Z,62.91
2022-08-31T08:31:07.087Z,62.77
2022-08-31T08:33:35.596Z,63.09
2022-08-31T08:36:07.627Z,62.22
2022-08-31T08:38:38.990Z,62.18
2022-08-31T08:41:12.978Z,61.19
2022-08-31T08:43:50.072Z,60.92
2022-08-31T08:46:35.650Z,61.32
2022-08-31T08:49:28.356Z,60.12
2022-08-31T08:52:11.666Z,60.75
2022-08-31T08:54:46.601Z,60.55
2022-08-31T08:57:20.904Z,60.86
2022-08-31T08:59:49.375Z,59.89
2022-08-31T09:02:23.146Z,59.36
2022-08-31T09:05:12.023Z,58.31
2022-08-31T09:07:50.906Z,57.92
2022-08-31T09:10:42.242Z,57.47
2022-08-31T09:13:30.139Z,57.31
2022-08-31T09:16:21.898Z,57.16
2022-08-31T09:19:08.394Z,56.29
2022-08-31T09:21:42.328Z,56.07
2022-08-31T09:24:21.593Z,55.98
2022-08-31T09:26:58.495Z,56.10
2022-08-31T09:29:31.264Z,55.50
2022-08-31T09:32:09.054Z,56.31
2022-08-31T09:34:41.229Z,54.77
2022-08-31T09:37:28.810Z,55.04
2022-08-31T09:39:56.423Z,55.25
2022-08-31T09:42:32.246Z,54.75
2022-08-31T09:45:15.626Z,54.16
2022-08-31T09:47:52.252Z,54.29
2022-08-31T09:50:31.461Z,52.60
2022-08-31T09:53:44.924Z,52.13
2022-08-31T09:56:19.762Z,51.25
2022-08-31T09:58:50.288Z,52.28
2022-08-31T10:01:37.874Z,52.09
2022-08-31T10:04:27.970Z,52.06
2022-08-31T10:07:29.952Z,51.88
2022-08-31T10:10:31.037Z,51.52
2022-08-31T10:13:22.867Z,51.52
2022-08-31T10:16:02.169Z,51.39
2022-08-31T10:18:55.969Z,49.31
2022-08-31T10:21:39.540Z,50.84
2022-08-31T10:24:33.293Z,50.45
2022-08-31T10:27:31.363Z,49.48
2022-08-31T10:30:05.620Z,49.48
2022-08-31T10:33:08.454Z,48.43
2022-08-31T10:35:54.952Z,47.75
2022-08-31T10:38:34.465Z,48.10
2022-08-31T10:41:16.250Z,48.86
2022-08-31T10:44:26.382Z,49.47
2022-08-31T10:47:02.584Z,48.42
2022-08-31T10:49:29.771Z,49.02
2022-08-31T10:52:17.168Z,46.66
2022-08-31T10:55:06.654Z,47.60
2022-08-31T10:57:56.266Z,47.42
2022-08-31T11:00:47.460Z,47.16
2022-08-31T11:03:48.960Z,45.28
2022-08-31T11:07:06.636Z,46.06
2022-08-31T11:09:54.940Z,45.76
2022-08-31T11:12:33.274Z,45.02
2022-08-31T11:15:44.120Z,44.90
2022-08-31T11:18:50.573Z,45.82
2022-08-31T11:22:14.106Z,45.76
2022-08-31T11:25:07.467Z,45.78
2022-08-31T11:27:55.143Z,44.78
2022-08-31T11:30:32.662Z,45.38
2022-08-31T11:33:06.866Z,45.05
2022-08-31T11:36:06.057Z,43.01
2022-08-31T11:38:54.710Z,44.08
2022-08-31T11:41:47.708Z,45.17
2022-08-31T11:44:33.281Z,44.71
2022-08-31T11:47:29.215Z,45.49
2022-08-31T11:50:02.310Z,46.51
2022-08-31T11:52:40.962Z,46.45
2022-08-31T11:55:28.587Z,46.31
2022-08-31T11:58:07.523Z,45.65
2022-08-31T12:00:58.817Z,45.67
2022-08-31T12:04:03.179Z,45.07
2022-08-31T12:06:32.081Z,45.50
2022-08-31T12:09:36.638Z,43.95
2022-08-31T12:12:32.371Z,43.76
2022-08-31T12:15:37.718Z,43.99
2022-08-31T12:18:38.447Z,43.13
2022-08-31T12:21:59.537Z,44.12
2022-08-31T12:25:02.226Z,44.88
2022-08-31T12:27:40.660Z,44.08
2022-08-31T12:30:36.598Z,42.08
2022-08-31T12:33:17.957Z,43.98
2022-08-31T12:35:49.220Z,43.68
2022-08-31T12:38:23.211Z,42.76
2022-08-31T12:40:57.870Z,43.17
2022-08-31T12:43:39.606Z,42.22
2022-08-31T12:46:33.439Z,41.90
2022-08-31T12:49:51.410Z,41.69
2022-08-31T12:52:39.424Z,42.00
2022-08-31T12:55:12.602Z,42.49
2022-08-31T12:57:50.645Z,42.60
2022-08-31T13:00:38.728Z,42.34
2022-08-31T13:03:28.956Z,41.39
2022-08-31T13:06:13.518Z,41.79
2022-08-31T13:08:50.255Z,42.29
2022-08-31T13:11:41.443Z,41.60
2022-08-31T13:14:13.024Z,42.75
2022-08-31T13:16:50.074Z,42.53
2022-08-31T13:19:30.226Z,42.06
2022-08-31T13:22:06.683Z,41.66
2022-08-31T13:24:41.283Z,41.61
2022-08-31T13:27:20.927Z,42.21
2022-08-31T13:29:50.884Z,41.96
2022-08-31T13:32:32.197Z,40.44
2022-08-31T13:35:13.993Z,40.98
2022-08-31T13:38:05.481Z,40.71
2022-08-31T13:40:39.901Z,40.10
2022-08-31T13:43:10.582Z,40.17
2022-08-31T13:45:58.090Z,38.85
2022-08-31T13:48:40.558Z,38.82
2022-08-31T13:51:18.273Z,39.35
2022-08-31T13:54:07.807Z,39.20
2022-08-31T13:56:55.460Z,39.15
2022-08-31T13:59:24.782Z,38.92
2022-08-31T14:01:57.776Z,38.63
2022-08-31T14:05:00.259Z,38.26
2022-08-31T14:07:39.367Z,37.47
2022-08-31T14:10:28.283Z,38.28
2022-08-31T14:13:27.711Z,38.73
2022-08-31T14:16:02.016Z,39.36
2022-08-31T14:18:43.053Z,39.67
2022-08-31T14:21:21.148Z,39.55
2022-08-31T14:23:54.403Z,39.36
2022-08-31T14:26:26.236Z,39.66
2022-08-31T14:28:56.742Z,39.29
2022-08-31T14:31:49.132Z,39.19
2022-08-31T14:34:24.412Z,39.47
2022-08-31T14:36:57.712Z,39.46
2022-08-31T14:39:30.757Z,39.66
2022-08-31T14:42:16.974Z,39.97
2022-08-31T14:44:53.506Z,39.51
2022-08-31T14:47:27.634Z,39.23
2022-08-31T14:50:01.524Z,39.18
2022-08-31T14:52:28.356Z,38.68
2022-08-31T14:55:00.448Z,38.95
2022-08-31T14:57:27.435Z,38.57
2022-08-31T14:59:59.584Z,37.69
2022-08-31T15:02:31.560Z,37.80
2022-08-31T15:05:06.490Z,37.78
2022-08-31T15:07:37.616Z,37.55
2022-08-31T15:10:07.610Z,37.75
2022-08-31T15:12:35.331Z,37.79
2022-08-31T15:15:02.146Z,37.89
2022-08-31T15:17:33.696Z,37.47
2022-08-31T15:20:03.336Z,38.42
2022-08-31T15:22:31.823Z,38.43
2022-08-31T15:24:59.009Z,38.47
2022-08-31T15:27:28.600Z,38.75
2022-08-31T15:30:02.408Z,38.54
2022-08-31T15:32:28.976Z,38.01
2022-08-31T15:34:58.625Z,37.83
2022-08-31T15:37:30.777Z,37.44
2022-08-31T15:40:02.073Z,37.89
2022-08-31T15:42:31.314Z,38.15
2022-08-31T15:44:58.124Z,37.34
2022-08-31T15:47:47.886Z,37.01
2022-08-31T15:50:19.105Z,37.15
2022-08-31T15:52:50.988Z,36.78
2022-08-31T15:55:26.260Z,37.12
2022-08-31T15:57:58.807Z,37.21
2022-08-31T16:00:36.645Z,36.89
2022-08-31T16:03:03.820Z,37.14
2022-08-31T16:05:35.477Z,37.61
2022-08-31T16:08:02.620Z,37.79
2022-08-31T16:10:30.946Z,37.73
2022-08-31T16:12:58.020Z,37.91
2022-08-31T16:15:25.225Z,37.50
2022-08-31T16:17:57.042Z,37.33
2022-08-31T16:20:23.547Z,37.40
2022-08-31T16:22:50.066Z,38.03
2022-08-31T16:25:17.559Z,38.10
2022-08-31T16:27:47.155Z,38.21
2022-08-31T16:30:15.856Z,38.12
2022-08-31T16:32:42.517Z,38.05
2022-08-31T16:35:09.764Z,37.86
2022-08-31T16:37:36.449Z,38.01
2022-08-31T16:40:04.318Z,37.99
2022-08-31T16:42:30.882Z,38.04
2022-08-31T16:45:01.807Z,38.28
2022-08-31T16:47:29.110Z,38.07
2022-08-31T16:49:55.826Z,38.71
2022-08-31T16:52:27.080Z,39.00
2022-08-31T16:54:57.039Z,38.85
2022-08-31T16:57:28.880Z,38.70
2022-08-31T16:59:57.327Z,38.71
2022-08-31T17:02:25.138Z,38.76
2022-08-31T17:04:54.295Z,38.78
2022-08-31T17:07:24.509Z,38.91
2022-08-31T17:09:56.429Z,39.19
2022-08-31T17:12:27.159Z,39.47
2022-08-31T17:14:53.964Z,39.78
2022-08-31T17:17:25.175Z,40.04
2022-08-31T17:19:55.776Z,39.90
2022-08-31T17:22:31.685Z,40.07
2022-08-31T17:25:04.568Z,40.60
2022-08-31T17:27:34.590Z,40.92
2022-08-31T17:30:05.638Z,41.12
2022-08-31T17:32:32.549Z,41.15
2022-08-31T17:34:59.837Z,41.46
2022-08-31T17:37:32.640Z,41.67
2022-08-31T17:40:00.222Z,42.00
2022-08-31T17:42:27.915Z,42.18
2022-08-31T17:44:56.678Z,42.39
2022-08-31T17:47:25.907Z,42.67
2022-08-31T17:49:52.941Z,42.79
2022-08-31T17:52:21.340Z,43.10
2022-08-31T17:54:50.407Z,43.40
2022-08-31T17:57:24.805Z,43.46
2022-08-31T17:59:52.861Z,44.24
2022-08-31T18:02:34.398Z,44.09
2022-08-31T18:05:02.323Z,44.26
2022-08-31T18:07:29.218Z,44.66
2022-08-31T18:09:56.576Z,44.89
2022-08-31T18:12:25.379Z,45.12
2022-08-31T18:14:58.057Z,44.98
2022-08-31T18:17:26.393Z,45.55
2022-08-31T18:19:54.566Z,45.68
2022-08-31T18:22:21.580Z,45.75
2022-08-31T18:24:48.144Z,45.79
2022-08-31T18:27:15.346Z,45.80
2022-08-31T18:29:44.033Z,46.29
2022-08-31T18:32:11.375Z,46.69
2022-08-31T18:34:46.899Z,46.63
2022-08-31T18:37:15.717Z,47.00
2022-08-31T18:40:04.185Z,47.27
2022-08-31T18:42:51.673Z,47.19
2022-08-31T18:45:19.384Z,47.41
2022-08-31T18:48:20.777Z,47.61
2022-08-31T18:50:44.091Z,47.82
2022-08-31T18:53:15.130Z,48.10
2022-08-31T18:55:45.672Z,48.05
2022-08-31T18:58:12.636Z,48.46
2022-08-31T19:00:40.152Z,48.10
2022-08-31T19:03:07.254Z,48.58
2022-08-31T19:05:39.890Z,48.47
2022-08-31T19:08:06.875Z,48.35
2022-08-31T19:10:34.695Z,48.57
2022-08-31T19:13:05.407Z,49.18
2022-08-31T19:15:39.803Z,49.45
2022-08-31T19:18:07.383Z,49.58
2022-08-31T19:20:35.412Z,49.74
2022-08-31T19:23:02.323Z,49.62
2022-08-31T19:25:29.155Z,49.62
2022-08-31T19:27:55.992Z,50.00
2022-08-31T19:30:27.887Z,50.11
2022-08-31T19:32:56.218Z,50.51
2022-08-31T19:35:25.821Z,50.55
2022-08-31T19:37:53.622Z,50.57
2022-08-31T19:40:20.279Z,50.65
2022-08-31T19:43:42.913Z,50.71
2022-08-31T19:45:43.595Z,50.82
2022-08-31T19:48:12.131Z,51.16
2022-08-31T19:50:41.970Z,51.11
2022-08-31T19:53:11.622Z,50.83
2022-08-31T19:55:50.011Z,50.70
2022-08-31T19:58:22.398Z,51.20
2022-08-31T20:00:49.827Z,51.28
2022-08-31T20:03:19.094Z,51.08
2022-08-31T20:05:46.766Z,51.45
2022-08-31T20:08:13.319Z,51.55
2022-08-31T20:10:45.944Z,51.23
2022-08-31T20:13:13.208Z,51.08
2022-08-31T20:15:45.008Z,51.47
2022-08-31T20:18:12.461Z,51.18
2022-08-31T20:20:45.848Z,50.95
2022-08-31T20:23:16.259Z,50.76
2022-08-31T20:25:45.583Z,51.01
2022-08-31T20:28:13.834Z,51.30
2022-08-31T20:30:43.273Z,51.41
2022-08-31T20:33:11.695Z,51.58
2022-08-31T20:35:47.192Z,51.48
2022-08-31T20:38:18.350Z,51.48
2022-08-31T20:40:48.134Z,51.74
2022-08-31T20:43:15.060Z,52.10
2022-08-31T20:45:42.368Z,52.39
2022-08-31T20:48:28.984Z,52.46
2022-08-31T20:50:57.234Z,53.02
2022-08-31T20:53:42.491Z,52.77
2022-08-31T20:56:17.505Z,52.85
2022-08-31T20:58:46.441Z,52.92
2022-08-31T21:01:14.051Z,52.78
2022-08-31T21:03:41.449Z,52.58
2022-08-31T21:06:11.493Z,52.43
2022-08-31T21:08:40.820Z,52.27
2022-08-31T21:11:17.697Z,52.37
2022-08-31T21:13:46.448Z,51.77
2022-08-31T21:16:14.976Z,51.58
2022-08-31T21:18:41.725Z,51.53
2022-08-31T21:21:17.399Z,51.23
2022-08-31T21:23:46.800Z,51.29
2022-08-31T21:26:26.576Z,51.75
2022-08-31T21:28:56.613Z,51.33
2022-08-31T21:31:28.978Z,51.38
2022-08-31T21:34:00.549Z,51.75
2022-08-31T21:36:29.651Z,52.17
2022-08-31T21:38:59.607Z,52.49
2022-08-31T21:41:28.732Z,52.57
2022-08-31T21:43:57.571Z,52.36
2022-08-31T21:46:28.821Z,52.42
2022-08-31T21:48:59.019Z,52.48
2022-08-31T21:51:37.293Z,52.51
2022-08-31T21:54:08.920Z,52.24
2022-08-31T21:56:44.050Z,52.45
2022-08-31T21:59:14.008Z,52.49
2022-08-31T22:01:41.648Z,52.55
2022-08-31T22:04:10.169Z,52.80
2022-08-31T22:06:38.148Z,53.06
2022-08-31T22:09:15.716Z,53.21
2022-08-31T22:11:46.470Z,53.00
2022-08-31T22:14:17.679Z,53.09
2022-08-31T22:16:46.774Z,53.09
2022-08-31T22:19:18.412Z,53.49
2022-08-31T22:21:49.351Z,53.83
2022-08-31T22:24:27.365Z,53.87
2022-08-31T22:26:57.879Z,53.74
2022-08-31T22:29:29.090Z,53.93
2022-08-31T22:32:01.643Z,54.20
2022-08-31T22:34:28.938Z,54.06
2022-08-31T22:36:56.572Z,54.19
2022-08-31T22:39:29.672Z,54.16
2022-08-31T22:41:58.780Z,54.06
2022-08-31T22:44:32.261Z,54.39
2022-08-31T22:46:59.116Z,54.06
2022-08-31T22:49:26.982Z,54.43
2022-08-31T22:51:54.711Z,54.55
2022-08-31T22:54:23.367Z,54.68
2022-08-31T22:56:52.003Z,54.82
2022-08-31T22:59:27.250Z,55.46
2022-08-31T23:02:03.201Z,55.96
2022-08-31T23:04:34.205Z,56.19
2022-08-31T23:07:03.466Z,56.54
2022-08-31T23:09:31.072Z,56.31
2022-08-31T23:12:00.899Z,55.83
2022-08-31T23:14:29.251Z,55.96
2022-08-31T23:16:59.731Z,55.72
2022-08-31T23:19:54.155Z,57.06
2022-08-31T23:22:24.450Z,56.52
2022-08-31T23:24:51.709Z,56.76
2022-08-31T23:27:21.624Z,56.96
2022-08-31T23:29:56.434Z,57.14
2022-08-31T23:32:27.741Z,57.37
2022-08-31T23:34:57.256Z,57.57
2022-08-31T23:37:26.237Z,57.74
2022-08-31T23:39:54.629Z,57.81
2022-08-31T23:42:24.395Z,57.79
2022-08-31T23:44:52.151Z,57.74
2022-08-31T23:47:26.591Z,57.72
2022-08-31T23:49:53.627Z,57.36
2022-08-31T23:52:27.490Z,57.26
2022-08-31T23:54:59.216Z,57.36
2022-08-31T23:57:32.164Z,57.39
